Time;durP1;ratioP1;P1;durP2;ratioP2;P2;SDS_P1;SDS_P2;PMS_P1;PMS_P2;Temp;Humidity;BMP_temperature;BMP_pressure;BME280_temperature;BME280_humidity;BME280_pressure;Samples;Min_cycle;Max_cycle;Signal;HPM_P1;HPM_P2
2023/08/28 00:00:15;;;;;;;1.50;1.00;;;;;;;;;;485216;29;1497;-75
2023/08/28 00:00:31;;;;;;;1.17;1.05;;;;;;;;;;484527;29;1397;-75
2023/08/28 00:00:46;;;;;;;1.57;0.90;;;;;;;;;;486862;29;1198;-75
2023/08/28 00:01:05;;;;;;;1.67;0.82;;;;;;;;;;490440;29;1167;-75
2023/08/28 00:01:21;;;;;;;2.20;0.90;;;;;;;;;;487767;29;1034;-75
2023/08/28 00:01:39;;;;;;;3.13;1.00;;;;;;;;;;491168;29;1059;-75
2023/08/28 00:01:55;;;;;;;2.63;0.90;;;;;;;;;;487624;29;1311;-76
2023/08/28 00:02:12;;;;;;;2.20;0.90;;;;;;;;;;488250;28;1100;-75
2023/08/28 00:02:27;;;;;;;1.73;0.90;;;;;;;;;;487759;29;1200;-75
2023/08/28 00:02:43;;;;;;;1.40;0.80;;;;;;;;;;486065;29;1241;-75
2023/08/28 00:02:59;;;;;;;1.58;0.80;;;;;;;;;;483771;29;1314;-75
2023/08/28 00:03:14;;;;;;;1.60;0.80;;;;;;;;;;484891;29;1013;-75
2023/08/28 00:03:30;;;;;;;2.05;0.80;;;;;;;;;;487949;29;1292;-75
2023/08/28 00:03:46;;;;;;;1.92;0.80;;;;;;;;;;488262;29;1215;-75
2023/08/28 00:04:02;;;;;;;1.30;0.90;;;;;;;;;;486762;29;1408;-75
2023/08/28 00:04:18;;;;;;;1.17;0.90;;;;;;;;;;485420;29;972;-75
2023/08/28 00:04:33;;;;;;;1.25;0.90;;;;;;;;;;486989;29;1340;-75
2023/08/28 00:04:49;;;;;;;1.20;0.90;;;;;;;;;;486615;29;1242;-75
2023/08/28 00:05:05;;;;;;;0.90;0.75;;;;;;;;;;484280;29;1458;-75
2023/08/28 00:05:21;;;;;;;1.00;0.80;;;;;;;;;;483263;29;1282;-75
2023/08/28 00:05:36;;;;;;;1.30;0.80;;;;;;;;;;484670;29;1353;-75
2023/08/28 00:05:52;;;;;;;1.33;0.80;;;;;;;;;;485006;29;975;-75
2023/08/28 00:06:08;;;;;;;1.13;0.80;;;;;;;;;;482508;29;995;-74
2023/08/28 00:06:24;;;;;;;1.50;0.90;;;;;;;;;;485271;29;1359;-75
2023/08/28 00:06:42;;;;;;;1.53;0.80;;;;;;;;;;486262;29;1954;-75
2023/08/28 00:06:58;;;;;;;1.48;0.77;;;;;;;;;;485866;29;1325;-75
2023/08/28 00:07:13;;;;;;;1.13;0.80;;;;;;;;;;482678;29;1246;-75
2023/08/28 00:07:29;;;;;;;1.33;0.70;;;;;;;;;;485234;29;931;-75
2023/08/28 00:07:45;;;;;;;1.58;0.75;;;;;;;;;;486130;29;1036;-75
2023/08/28 00:08:03;;;;;;;1.30;0.80;;;;;;;;;;486946;29;1012;-75
2023/08/28 00:08:19;;;;;;;1.27;0.77;;;;;;;;;;485662;29;1552;-76
2023/08/28 00:08:35;;;;;;;0.90;0.70;;;;;;;;;;489546;29;1296;-75
2023/08/28 00:08:50;;;;;;;0.80;0.65;;;;;;;;;;487759;29;1362;-75
2023/08/28 00:09:07;;;;;;;1.08;0.65;;;;;;;;;;486877;29;1362;-75
2023/08/28 00:09:23;;;;;;;1.00;0.70;;;;;;;;;;486338;29;1408;-75
2023/08/28 00:09:39;;;;;;;1.30;0.80;;;;;;;;;;486937;29;1274;-75
2023/08/28 00:09:55;;;;;;;1.38;0.80;;;;;;;;;;486328;29;1385;-75
2023/08/28 00:10:10;;;;;;;1.27;0.77;;;;;;;;;;480826;29;1270;-75
2023/08/28 00:10:26;;;;;;;1.27;0.80;;;;;;;;;;482509;29;1316;-75
2023/08/28 00:10:42;;;;;;;1.02;0.70;;;;;;;;;;485589;29;1210;-75
2023/08/28 00:10:57;;;;;;;0.70;0.60;;;;;;;;;;485339;29;1193;-75
2023/08/28 00:11:13;;;;;;;0.75;0.60;;;;;;;;;;483538;29;1120;-75
2023/08/28 00:11:28;;;;;;;1.20;0.70;;;;;;;;;;485317;29;1215;-76
2023/08/28 00:11:44;;;;;;;1.13;0.70;;;;;;;;;;486239;29;1224;-75
2023/08/28 00:12:01;;;;;;;0.98;0.60;;;;;;;;;;486179;29;1111;-75
2023/08/28 00:12:16;;;;;;;1.60;0.57;;;;;;;;;;484639;29;1056;-75
2023/08/28 00:12:36;;;;;;;1.40;0.60;;;;;;;;;;488960;29;1283;-75
2023/08/28 00:12:52;;;;;;;1.15;0.60;;;;;;;;;;489622;29;1173;-75
2023/08/28 00:13:07;;;;;;;1.57;0.60;;;;;;;;;;486726;29;1104;-75
2023/08/28 00:13:23;;;;;;;1.70;0.70;;;;;;;;;;484521;29;1388;-75
2023/08/28 00:13:39;;;;;;;1.63;0.77;;;;;;;;;;484710;29;1246;-76
2023/08/28 00:13:54;;;;;;;1.63;0.73;;;;;;;;;;485189;29;1110;-75
2023/08/28 00:14:10;;;;;;;1.60;0.80;;;;;;;;;;484424;29;956;-74
2023/08/28 00:14:26;;;;;;;1.13;0.77;;;;;;;;;;486689;29;1173;-75
2023/08/28 00:14:41;;;;;;;1.70;0.80;;;;;;;;;;488365;29;1125;-75
2023/08/28 00:14:57;;;;;;;2.28;0.80;;;;;;;;;;487903;29;1175;-75
2023/08/28 00:15:12;;;;;;;1.87;0.80;;;;;;;;;;483415;29;1263;-75
2023/08/28 00:15:28;;;;;;;1.40;0.70;;;;;;;;;;489150;29;1295;-75
2023/08/28 00:15:44;;;;;;;2.17;0.70;;;;;;;;;;490042;29;1336;-75
2023/08/28 00:15:59;;;;;;;2.73;0.80;;;;;;;;;;488570;29;1123;-75
2023/08/28 00:16:15;;;;;;;1.88;0.88;;;;;;;;;;485544;29;1232;-75
2023/08/28 00:16:30;;;;;;;1.37;0.80;;;;;;;;;;488361;29;1245;-75
2023/08/28 00:16:46;;;;;;;1.30;0.70;;;;;;;;;;485688;29;1189;-75
2023/08/28 00:17:04;;;;;;;1.73;0.70;;;;;;;;;;485859;29;983;-75
2023/08/28 00:17:20;;;;;;;1.90;0.80;;;;;;;;;;485439;29;1408;-75
2023/08/28 00:17:39;;;;;;;1.20;0.70;;;;;;;;;;487307;29;1140;-76
2023/08/28 00:17:54;;;;;;;1.65;0.80;;;;;;;;;;488374;29;1222;-75
2023/08/28 00:18:10;;;;;;;1.30;0.65;;;;;;;;;;487046;29;1317;-75
2023/08/28 00:18:26;;;;;;;1.30;0.70;;;;;;;;;;487930;29;1245;-76
2023/08/28 00:18:41;;;;;;;2.00;0.80;;;;;;;;;;489863;29;1464;-75
2023/08/28 00:18:57;;;;;;;1.37;0.80;;;;;;;;;;486492;29;1380;-75
2023/08/28 00:19:12;;;;;;;1.23;0.80;;;;;;;;;;485465;29;1042;-75
2023/08/28 00:19:28;;;;;;;1.65;0.82;;;;;;;;;;486665;29;1024;-76
2023/08/28 00:19:43;;;;;;;1.60;0.90;;;;;;;;;;486645;29;1117;-75
2023/08/28 00:19:59;;;;;;;1.17;0.70;;;;;;;;;;487471;29;1410;-75
2023/08/28 00:20:16;;;;;;;1.20;0.63;;;;;;;;;;487772;28;1055;-75
2023/08/28 00:20:31;;;;;;;1.33;0.80;;;;;;;;;;489780;28;1400;-75
2023/08/28 00:20:47;;;;;;;1.60;0.80;;;;;;;;;;489066;29;1226;-75
2023/08/28 00:21:04;;;;;;;1.83;0.80;;;;;;;;;;489955;29;1244;-75
2023/08/28 00:21:20;;;;;;;1.38;0.80;;;;;;;;;;486143;29;1241;-75
2023/08/28 00:21:36;;;;;;;1.40;0.80;;;;;;;;;;486670;29;1432;-75
2023/08/28 00:21:52;;;;;;;1.08;0.68;;;;;;;;;;484739;29;1343;-75
2023/08/28 00:22:07;;;;;;;1.17;0.60;;;;;;;;;;482678;29;1169;-76
2023/08/28 00:22:23;;;;;;;1.30;0.63;;;;;;;;;;482922;29;1114;-75
2023/08/28 00:22:39;;;;;;;1.00;0.70;;;;;;;;;;487259;29;1160;-76
2023/08/28 00:22:55;;;;;;;2.28;0.85;;;;;;;;;;486529;29;1203;-75
2023/08/28 00:23:10;;;;;;;2.80;0.90;;;;;;;;;;483182;29;1102;-76
2023/08/28 00:23:26;;;;;;;1.58;0.73;;;;;;;;;;483524;29;1310;-75
2023/08/28 00:23:42;;;;;;;0.88;0.60;;;;;;;;;;485240;29;1371;-75
2023/08/28 00:23:58;;;;;;;0.70;0.60;;;;;;;;;;485976;29;1387;-75
2023/08/28 00:24:14;;;;;;;1.03;0.67;;;;;;;;;;481786;29;1148;-75
2023/08/28 00:24:30;;;;;;;1.25;0.70;;;;;;;;;;483676;29;1230;-76
2023/08/28 00:24:45;;;;;;;1.30;0.75;;;;;;;;;;484703;29;1048;-75
2023/08/28 00:25:02;;;;;;;1.57;0.73;;;;;;;;;;485137;29;945;-75
2023/08/28 00:25:18;;;;;;;2.10;0.80;;;;;;;;;;481747;29;1427;-75
2023/08/28 00:25:33;;;;;;;1.23;0.80;;;;;;;;;;485297;29;1314;-76
2023/08/28 00:25:49;;;;;;;1.05;0.70;;;;;;;;;;486232;29;1239;-75
2023/08/28 00:26:05;;;;;;;1.83;0.70;;;;;;;;;;486461;29;1090;-75
2023/08/28 00:26:20;;;;;;;2.53;0.73;;;;;;;;;;483888;29;1198;-75
2023/08/28 00:26:36;;;;;;;3.10;0.80;;;;;;;;;;482241;29;1968;-75
2023/08/28 00:26:51;;;;;;;2.38;0.70;;;;;;;;;;480767;29;1226;-75
2023/08/28 00:27:07;;;;;;;2.97;0.80;;;;;;;;;;481491;29;1277;-75
2023/08/28 00:27:23;;;;;;;3.53;0.80;;;;;;;;;;485247;29;1275;-75
2023/08/28 00:27:38;;;;;;;2.05;0.70;;;;;;;;;;484524;29;1043;-75
2023/08/28 00:27:54;;;;;;;2.00;0.73;;;;;;;;;;485677;29;1105;-75
2023/08/28 00:28:09;;;;;;;1.67;0.77;;;;;;;;;;480024;29;1716;-75
2023/08/28 00:28:25;;;;;;;1.40;0.90;;;;;;;;;;484433;29;1197;-75
2023/08/28 00:28:41;;;;;;;1.50;0.82;;;;;;;;;;485358;29;1404;-75
2023/08/28 00:28:57;;;;;;;1.83;0.70;;;;;;;;;;487540;29;949;-76
2023/08/28 00:29:12;;;;;;;2.60;0.80;;;;;;;;;;482145;29;1472;-76
2023/08/28 00:29:28;;;;;;;2.00;0.80;;;;;;;;;;487521;29;1237;-76
2023/08/28 00:29:44;;;;;;;1.77;0.70;;;;;;;;;;484609;29;1235;-75
2023/08/28 00:30:00;;;;;;;1.85;0.75;;;;;;;;;;486666;29;1204;-75
2023/08/28 00:30:17;;;;;;;2.10;0.80;;;;;;;;;;482639;29;1008;-75
2023/08/28 00:30:33;;;;;;;2.45;0.80;;;;;;;;;;485338;29;1357;-75
2023/08/28 00:30:49;;;;;;;1.23;0.70;;;;;;;;;;484935;29;1353;-75
2023/08/28 00:31:04;;;;;;;2.40;0.63;;;;;;;;;;483597;29;1152;-75
2023/08/28 00:31:19;;;;;;;2.93;0.70;;;;;;;;;;481588;29;1270;-75
2023/08/28 00:31:35;;;;;;;1.13;0.70;;;;;;;;;;484211;29;1328;-75
2023/08/28 00:31:51;;;;;;;0.83;0.60;;;;;;;;;;484573;29;1219;-75
2023/08/28 00:32:06;;;;;;;0.75;0.60;;;;;;;;;;482750;29;1181;-75
2023/08/28 00:32:22;;;;;;;0.70;0.60;;;;;;;;;;485413;29;1282;-75
2023/08/28 00:32:38;;;;;;;0.80;0.60;;;;;;;;;;488569;29;1119;-75
2023/08/28 00:32:54;;;;;;;1.63;0.70;;;;;;;;;;485746;29;1253;-76
2023/08/28 00:33:09;;;;;;;2.38;0.80;;;;;;;;;;485484;29;1315;-75
2023/08/28 00:33:26;;;;;;;2.60;0.80;;;;;;;;;;486876;29;1227;-75
2023/08/28 00:33:42;;;;;;;1.65;0.73;;;;;;;;;;487112;29;1566;-75
2023/08/28 00:33:57;;;;;;;1.00;0.70;;;;;;;;;;486624;29;1195;-75
2023/08/28 00:34:13;;;;;;;1.52;0.70;;;;;;;;;;483671;29;990;-75
2023/08/28 00:34:29;;;;;;;2.20;0.70;;;;;;;;;;483384;29;1104;-75
2023/08/28 00:34:45;;;;;;;2.08;0.77;;;;;;;;;;485397;29;1450;-74
2023/08/28 00:35:01;;;;;;;2.03;0.80;;;;;;;;;;484077;29;1463;-75
2023/08/28 00:35:16;;;;;;;1.95;0.70;;;;;;;;;;482216;29;1156;-74
2023/08/28 00:35:32;;;;;;;1.50;0.67;;;;;;;;;;483884;29;1670;-75
2023/08/28 00:35:49;;;;;;;0.90;0.60;;;;;;;;;;486033;29;1617;-75
2023/08/28 00:36:04;;;;;;;1.30;0.63;;;;;;;;;;485485;29;1214;-74
2023/08/28 00:36:20;;;;;;;1.87;0.70;;;;;;;;;;486403;29;1301;-75
2023/08/28 00:36:36;;;;;;;1.20;0.60;;;;;;;;;;487028;29;1318;-75
2023/08/28 00:36:51;;;;;;;0.93;0.60;;;;;;;;;;487878;29;1040;-75
2023/08/28 00:37:07;;;;;;;1.15;0.60;;;;;;;;;;483410;29;1245;-75
2023/08/28 00:37:22;;;;;;;1.23;0.60;;;;;;;;;;483629;29;1357;-75
2023/08/28 00:37:38;;;;;;;1.92;0.73;;;;;;;;;;484871;29;1230;-75
2023/08/28 00:37:54;;;;;;;1.57;0.70;;;;;;;;;;484856;29;1040;-75
2023/08/28 00:38:10;;;;;;;0.73;0.60;;;;;;;;;;483335;29;1377;-75
2023/08/28 00:38:25;;;;;;;1.77;0.70;;;;;;;;;;487292;29;1198;-75
2023/08/28 00:38:41;;;;;;;2.33;0.77;;;;;;;;;;488996;29;1020;-74
2023/08/28 00:38:57;;;;;;;2.30;0.80;;;;;;;;;;485511;29;1127;-75
2023/08/28 00:39:12;;;;;;;1.98;0.80;;;;;;;;;;482927;29;1264;-74
2023/08/28 00:39:28;;;;;;;0.95;0.60;;;;;;;;;;484979;29;1075;-75
2023/08/28 00:39:44;;;;;;;1.00;0.70;;;;;;;;;;485465;29;1146;-75
2023/08/28 00:40:00;;;;;;;2.08;0.80;;;;;;;;;;485582;29;1131;-75
2023/08/28 00:40:16;;;;;;;1.75;0.70;;;;;;;;;;486056;29;1071;-75
2023/08/28 00:40:31;;;;;;;1.58;0.60;;;;;;;;;;487971;29;1056;-75
2023/08/28 00:40:47;;;;;;;1.53;0.73;;;;;;;;;;486537;29;1179;-75
2023/08/28 00:41:03;;;;;;;1.10;0.70;;;;;;;;;;489058;28;1292;-75
2023/08/28 00:41:18;;;;;;;1.20;0.60;;;;;;;;;;486672;29;1267;-75
2023/08/28 00:41:36;;;;;;;1.60;0.70;;;;;;;;;;486383;29;1289;-75
2023/08/28 00:41:52;;;;;;;1.52;0.65;;;;;;;;;;486006;29;1125;-75
2023/08/28 00:42:07;;;;;;;1.67;0.70;;;;;;;;;;483332;29;1123;-75
2023/08/28 00:42:23;;;;;;;1.67;0.77;;;;;;;;;;485360;29;1209;-74
2023/08/28 00:42:39;;;;;;;1.35;0.77;;;;;;;;;;486845;29;1220;-75
2023/08/28 00:42:55;;;;;;;1.30;0.70;;;;;;;;;;484020;29;1191;-75
2023/08/28 00:43:10;;;;;;;1.38;0.70;;;;;;;;;;481848;29;1247;-75
2023/08/28 00:43:26;;;;;;;1.10;0.70;;;;;;;;;;486218;29;1231;-75
2023/08/28 00:43:41;;;;;;;1.23;0.65;;;;;;;;;;486016;29;1200;-75
2023/08/28 00:43:57;;;;;;;2.23;0.70;;;;;;;;;;485171;29;1363;-75
2023/08/28 00:44:13;;;;;;;2.03;0.70;;;;;;;;;;482258;29;1178;-75
2023/08/28 00:44:29;;;;;;;1.25;0.70;;;;;;;;;;484884;29;1161;-75
2023/08/28 00:44:44;;;;;;;1.30;0.75;;;;;;;;;;485196;29;1008;-75
2023/08/28 00:45:00;;;;;;;1.40;0.90;;;;;;;;;;484900;29;1483;-74
2023/08/28 00:45:16;;;;;;;1.05;0.80;;;;;;;;;;486005;29;1113;-75
2023/08/28 00:45:31;;;;;;;1.45;0.90;;;;;;;;;;485645;29;1558;-75
2023/08/28 00:45:47;;;;;;;1.80;0.90;;;;;;;;;;485619;29;1146;-76
2023/08/28 00:46:04;;;;;;;1.80;0.80;;;;;;;;;;483379;29;1070;-75
2023/08/28 00:46:20;;;;;;;1.60;0.70;;;;;;;;;;480199;29;1071;-75
2023/08/28 00:46:36;;;;;;;1.60;0.70;;;;;;;;;;483383;29;1055;-75
2023/08/28 00:46:53;;;;;;;3.63;0.90;;;;;;;;;;484347;29;1330;-75
2023/08/28 00:47:10;;;;;;;3.53;1.05;;;;;;;;;;485867;29;1166;-75
2023/08/28 00:47:26;;;;;;;1.60;0.90;;;;;;;;;;489302;28;966;-75
2023/08/28 00:47:45;;;;;;;1.83;0.80;;;;;;;;;;490911;28;1502;-75
2023/08/28 00:48:02;;;;;;;1.63;0.70;;;;;;;;;;486818;29;1636;-74
2023/08/28 00:48:21;;;;;;;1.40;0.73;;;;;;;;;;485129;29;1136;-75
2023/08/28 00:48:36;;;;;;;1.55;0.80;;;;;;;;;;486028;29;1343;-75
2023/08/28 00:48:52;;;;;;;1.35;0.82;;;;;;;;;;487493;29;999;-75
2023/08/28 00:49:08;;;;;;;1.75;0.93;;;;;;;;;;485510;29;1141;-75
2023/08/28 00:49:24;;;;;;;2.00;0.85;;;;;;;;;;485152;29;1337;-75
2023/08/28 00:49:40;;;;;;;1.13;0.80;;;;;;;;;;487482;29;1414;-75
2023/08/28 00:49:56;;;;;;;1.17;0.88;;;;;;;;;;485647;29;1354;-74
2023/08/28 00:50:12;;;;;;;1.60;0.90;;;;;;;;;;486266;29;1356;-75
2023/08/28 00:50:28;;;;;;;1.40;0.80;;;;;;;;;;487964;29;951;-75
2023/08/28 00:50:45;;;;;;;1.88;0.82;;;;;;;;;;486501;29;1275;-75
2023/08/28 00:51:01;;;;;;;1.60;0.80;;;;;;;;;;487097;29;959;-75
2023/08/28 00:51:17;;;;;;;1.52;0.90;;;;;;;;;;483702;29;1044;-75
2023/08/28 00:51:33;;;;;;;1.90;0.93;;;;;;;;;;487800;29;966;-75
2023/08/28 00:51:49;;;;;;;1.50;0.75;;;;;;;;;;488713;29;1160;-74
2023/08/28 00:52:05;;;;;;;1.45;0.70;;;;;;;;;;487008;29;1275;-75
2023/08/28 00:52:21;;;;;;;1.55;0.80;;;;;;;;;;484505;29;1158;-75
2023/08/28 00:52:38;;;;;;;1.55;0.80;;;;;;;;;;488592;29;1296;-74
2023/08/28 00:52:54;;;;;;;1.67;0.80;;;;;;;;;;487008;29;1292;-75
2023/08/28 00:53:13;;;;;;;2.10;0.80;;;;;;;;;;487721;28;959;-75
2023/08/28 00:53:29;;;;;;;1.30;0.90;;;;;;;;;;489975;28;1157;-74
2023/08/28 00:53:44;;;;;;;1.23;0.90;;;;;;;;;;488840;29;1255;-75
2023/08/28 00:54:03;;;;;;;1.60;1.00;;;;;;;;;;485739;29;1277;-75
2023/08/28 00:54:19;;;;;;;2.08;1.00;;;;;;;;;;486026;29;1474;-76
2023/08/28 00:54:35;;;;;;;2.00;1.00;;;;;;;;;;485676;29;1436;-76
2023/08/28 00:54:51;;;;;;;1.35;1.00;;;;;;;;;;486409;29;1156;-75
2023/08/28 00:55:07;;;;;;;1.17;0.90;;;;;;;;;;486346;29;1201;-75
2023/08/28 00:55:23;;;;;;;1.58;0.75;;;;;;;;;;484274;29;1212;-75
2023/08/28 00:55:40;;;;;;;1.50;0.70;;;;;;;;;;483900;29;1061;-75
2023/08/28 00:55:55;;;;;;;0.90;0.80;;;;;;;;;;483472;29;1325;-75
2023/08/28 00:56:11;;;;;;;0.90;0.85;;;;;;;;;;481991;29;1038;-75
2023/08/28 00:56:27;;;;;;;1.00;0.90;;;;;;;;;;482896;29;1222;-74
2023/08/28 00:56:46;;;;;;;1.10;0.80;;;;;;;;;;486187;29;1350;-75
2023/08/28 00:57:03;;;;;;;1.00;0.80;;;;;;;;;;485238;29;1167;-75
2023/08/28 00:57:19;;;;;;;1.15;0.80;;;;;;;;;;483518;29;1128;-75
2023/08/28 00:57:34;;;;;;;1.40;0.80;;;;;;;;;;486569;29;1306;-75
2023/08/28 00:57:50;;;;;;;1.83;0.87;;;;;;;;;;488188;28;1182;-75
2023/08/28 00:58:06;;;;;;;2.30;0.90;;;;;;;;;;486236;29;1241;-75
2023/08/28 00:58:21;;;;;;;1.70;0.80;;;;;;;;;;487214;29;1162;-74
2023/08/28 00:58:37;;;;;;;1.55;0.77;;;;;;;;;;485895;29;1135;-75
2023/08/28 00:58:53;;;;;;;1.42;0.73;;;;;;;;;;486408;29;1239;-75
2023/08/28 00:59:09;;;;;;;1.17;0.75;;;;;;;;;;483480;28;1212;-75
2023/08/28 00:59:26;;;;;;;1.63;0.80;;;;;;;;;;486007;29;1192;-75
2023/08/28 00:59:43;;;;;;;1.30;0.70;;;;;;;;;;484034;29;1084;-75
2023/08/28 00:59:59;;;;;;;1.45;0.73;;;;;;;;;;482771;29;1274;-75
2023/08/28 01:00:15;;;;;;;1.70;0.70;;;;;;;;;;481566;29;1258;-75
2023/08/28 01:00:31;;;;;;;1.20;0.70;;;;;;;;;;482181;29;1636;-75
2023/08/28 01:00:49;;;;;;;0.88;0.60;;;;;;;;;;481225;29;1079;-74
2023/08/28 01:01:05;;;;;;;0.82;0.60;;;;;;;;;;482473;29;1310;-75
2023/08/28 01:01:21;;;;;;;1.67;0.70;;;;;;;;;;483071;29;1481;-74
2023/08/28 01:01:37;;;;;;;2.05;0.77;;;;;;;;;;486985;29;1348;-74
2023/08/28 01:01:52;;;;;;;1.50;0.75;;;;;;;;;;490137;28;965;-75
2023/08/28 01:02:08;;;;;;;1.47;0.70;;;;;;;;;;487101;28;1322;-75
2023/08/28 01:02:24;;;;;;;1.70;0.88;;;;;;;;;;488232;29;1145;-75
2023/08/28 01:02:40;;;;;;;1.83;0.90;;;;;;;;;;486311;29;1172;-75
2023/08/28 01:02:55;;;;;;;1.88;0.82;;;;;;;;;;482202;29;1430;-75
2023/08/28 01:03:11;;;;;;;2.00;0.83;;;;;;;;;;482256;29;1137;-75
2023/08/28 01:03:27;;;;;;;1.02;0.70;;;;;;;;;;482240;29;1258;-74
2023/08/28 01:03:43;;;;;;;2.05;0.73;;;;;;;;;;484904;29;1072;-75
2023/08/28 01:03:58;;;;;;;2.30;0.80;;;;;;;;;;485003;29;976;-74
2023/08/28 01:04:14;;;;;;;1.30;0.82;;;;;;;;;;483802;29;1084;-75
2023/08/28 01:04:31;;;;;;;1.27;0.88;;;;;;;;;;484946;29;1333;-75
2023/08/28 01:04:47;;;;;;;2.30;0.90;;;;;;;;;;483996;29;1167;-76
2023/08/28 01:05:04;;;;;;;2.27;1.03;;;;;;;;;;483712;29;943;-75
2023/08/28 01:05:28;;;;;;;1.15;1.00;;;;;;;;;;482011;29;1192;-75
2023/08/28 01:06:21;;;;;;;1.73;1.08;;;;;;;;;;487160;29;951;-75
2023/08/28 01:06:50;;;;;;;2.00;1.70;;;;;;;;;;486748;28;1107;-74
2023/08/28 01:07:25;;;;;;;1.95;1.40;;;;;;;;;;489294;29;1307;-75
2023/08/28 01:07:58;;;;;;;2.92;1.98;;;;;;;;;;488544;28;1337;-75
2023/08/28 01:08:44;;;;;;;2.83;1.50;;;;;;;;;;486436;29;1118;-75
2023/08/28 01:09:15;;;;;;;2.20;1.30;;;;;;;;;;486139;29;1111;-75
2023/08/28 01:09:52;;;;;;;1.95;1.00;;;;;;;;;;483246;29;1253;-75
2023/08/28 01:10:41;;;;;;;1.48;1.02;;;;;;;;;;487380;29;1098;-75
2023/08/28 01:11:24;;;;;;;2.20;1.05;;;;;;;;;;489362;28;1242;-75
2023/08/28 01:11:50;;;;;;;1.95;1.00;;;;;;;;;;490734;28;1238;-75
2023/08/28 01:12:24;;;;;;;2.92;1.10;;;;;;;;;;490388;29;1168;-74
2023/08/28 01:12:59;;;;;;;3.15;1.05;;;;;;;;;;488538;28;1165;-75
2023/08/28 01:13:22;;;;;;;1.70;1.00;;;;;;;;;;486281;29;1026;-75
2023/08/28 01:13:52;;;;;;;1.30;1.00;;;;;;;;;;487640;29;1317;-75
2023/08/28 01:14:58;;;;;;;1.92;1.00;;;;;;;;;;487222;28;1288;-75
2023/08/28 01:15:20;;;;;;;1.70;1.02;;;;;;;;;;480026;29;1158;-75
2023/08/28 01:15:36;;;;;;;1.95;0.90;;;;;;;;;;481590;29;1443;-75
2023/08/28 01:15:54;;;;;;;3.17;0.85;;;;;;;;;;481875;29;1246;-75
2023/08/28 01:16:10;;;;;;;3.45;0.90;;;;;;;;;;481688;29;1037;-75
2023/08/28 01:16:27;;;;;;;1.67;0.90;;;;;;;;;;479273;29;1218;-75
2023/08/28 01:16:45;;;;;;;1.98;0.90;;;;;;;;;;479701;29;1222;-75
2023/08/28 01:17:04;;;;;;;2.63;1.17;;;;;;;;;;482122;29;1213;-76
2023/08/28 01:17:23;;;;;;;1.63;1.10;;;;;;;;;;481863;29;1156;-75
2023/08/28 01:17:40;;;;;;;1.40;1.00;;;;;;;;;;487032;29;1005;-75
2023/08/28 01:18:00;;;;;;;1.80;0.90;;;;;;;;;;487046;29;1452;-74
2023/08/28 01:18:16;;;;;;;2.45;0.80;;;;;;;;;;482761;29;1433;-75
2023/08/28 01:18:33;;;;;;;2.65;0.90;;;;;;;;;;480823;29;1111;-75
2023/08/28 01:18:49;;;;;;;2.30;0.90;;;;;;;;;;475253;29;1276;-76
2023/08/28 01:19:10;;;;;;;1.37;0.80;;;;;;;;;;478701;29;1160;-75
2023/08/28 01:19:43;;;;;;;1.48;0.85;;;;;;;;;;481015;29;1136;-75
2023/08/28 01:19:59;;;;;;;1.65;0.80;;;;;;;;;;482974;29;1539;-75
2023/08/28 01:20:15;;;;;;;0.88;0.75;;;;;;;;;;481162;29;1090;-74
2023/08/28 01:20:35;;;;;;;1.23;0.80;;;;;;;;;;481678;29;943;-75
2023/08/28 01:20:53;;;;;;;1.42;0.70;;;;;;;;;;482135;29;1176;-75
2023/08/28 01:21:09;;;;;;;1.10;0.80;;;;;;;;;;484841;29;1352;-75
2023/08/28 01:21:26;;;;;;;1.20;0.80;;;;;;;;;;479670;29;1297;-75
2023/08/28 01:21:47;;;;;;;1.85;0.82;;;;;;;;;;483959;29;1444;-74
2023/08/28 01:22:11;;;;;;;2.92;0.85;;;;;;;;;;483258;29;924;-75
2023/08/28 01:22:26;;;;;;;1.27;0.73;;;;;;;;;;480349;29;1214;-75
2023/08/28 01:22:44;;;;;;;1.00;0.60;;;;;;;;;;482651;29;1333;-75
2023/08/28 01:23:26;;;;;;;1.08;0.75;;;;;;;;;;480478;29;1294;-75
2023/08/28 01:23:57;;;;;;;2.22;0.85;;;;;;;;;;483846;29;1150;-75
2023/08/28 01:24:21;;;;;;;1.85;0.80;;;;;;;;;;482523;29;1422;-75
2023/08/28 01:24:45;;;;;;;1.80;0.70;;;;;;;;;;483234;29;1306;-75
2023/08/28 01:25:12;;;;;;;1.10;0.70;;;;;;;;;;483790;29;1018;-75
2023/08/28 01:25:29;;;;;;;1.42;0.80;;;;;;;;;;483868;29;1407;-75
2023/08/28 01:25:46;;;;;;;2.08;0.80;;;;;;;;;;484755;29;939;-75
2023/08/28 01:26:02;;;;;;;1.63;0.80;;;;;;;;;;482424;29;1351;-75
2023/08/28 01:26:18;;;;;;;1.70;0.77;;;;;;;;;;480257;29;1208;-75
2023/08/28 01:26:33;;;;;;;2.03;0.70;;;;;;;;;;482867;29;1039;-75
2023/08/28 01:26:49;;;;;;;1.43;0.77;;;;;;;;;;485661;29;1942;-75
2023/08/28 01:27:05;;;;;;;1.15;0.80;;;;;;;;;;485755;29;1298;-75
2023/08/28 01:27:22;;;;;;;1.00;0.82;;;;;;;;;;484159;29;1393;-75
2023/08/28 01:27:41;;;;;;;1.50;0.82;;;;;;;;;;483213;29;1241;-75
2023/08/28 01:27:58;;;;;;;1.70;0.70;;;;;;;;;;483348;29;1006;-75
2023/08/28 01:28:14;;;;;;;2.95;0.93;;;;;;;;;;483247;29;1307;-75
2023/08/28 01:28:30;;;;;;;3.03;0.90;;;;;;;;;;483112;29;1316;-75
2023/08/28 01:28:46;;;;;;;2.00;0.80;;;;;;;;;;485784;29;1363;-75
2023/08/28 01:29:03;;;;;;;1.05;0.77;;;;;;;;;;483962;29;1447;-75
2023/08/28 01:29:18;;;;;;;1.80;0.70;;;;;;;;;;478459;29;1533;-75
2023/08/28 01:29:34;;;;;;;2.40;0.80;;;;;;;;;;482169;29;1397;-75
2023/08/28 01:30:10;;;;;;;1.80;0.80;;;;;;;;;;480919;29;904;-75
2023/08/28 01:30:25;;;;;;;1.27;0.80;;;;;;;;;;483276;29;1448;-76
2023/08/28 01:30:41;;;;;;;1.48;0.68;;;;;;;;;;484017;29;1422;-75
2023/08/28 01:30:56;;;;;;;1.30;0.70;;;;;;;;;;482935;29;1308;-75
2023/08/28 01:31:12;;;;;;;1.55;0.77;;;;;;;;;;484669;29;1149;-75
2023/08/28 01:31:28;;;;;;;2.20;0.80;;;;;;;;;;485125;29;1218;-76
2023/08/28 01:31:43;;;;;;;1.80;0.90;;;;;;;;;;485046;29;1045;-75
2023/08/28 01:31:59;;;;;;;1.70;0.90;;;;;;;;;;483732;29;1117;-75
2023/08/28 01:32:14;;;;;;;2.47;1.00;;;;;;;;;;483322;29;1462;-75
2023/08/28 01:32:30;;;;;;;2.10;0.90;;;;;;;;;;486025;29;1413;-75
2023/08/28 01:32:46;;;;;;;1.42;0.80;;;;;;;;;;481503;29;1205;-75
2023/08/28 01:33:01;;;;;;;1.90;0.80;;;;;;;;;;483072;29;1287;-75
2023/08/28 01:33:18;;;;;;;1.42;0.75;;;;;;;;;;479655;29;1381;-75
2023/08/28 01:33:35;;;;;;;1.65;0.80;;;;;;;;;;480141;29;903;-75
2023/08/28 01:33:52;;;;;;;1.83;0.77;;;;;;;;;;482250;29;1068;-75
2023/08/28 01:34:08;;;;;;;1.58;0.80;;;;;;;;;;478686;29;1322;-75
2023/08/28 01:34:23;;;;;;;1.50;0.80;;;;;;;;;;482537;29;1116;-75
2023/08/28 01:34:40;;;;;;;1.15;0.77;;;;;;;;;;484855;29;1235;-75
2023/08/28 01:34:56;;;;;;;0.90;0.70;;;;;;;;;;483365;29;1128;-75
2023/08/28 01:35:11;;;;;;;1.43;0.70;;;;;;;;;;481082;29;1151;-75
2023/08/28 01:35:29;;;;;;;2.10;0.75;;;;;;;;;;486055;29;1217;-75
2023/08/28 01:36:06;;;;;;;1.50;0.80;;;;;;;;;;487346;29;1164;-75
2023/08/28 01:36:30;;;;;;;2.28;0.90;;;;;;;;;;483569;29;1017;-75
2023/08/28 01:36:53;;;;;;;1.80;0.80;;;;;;;;;;483713;29;1127;-75
2023/08/28 01:37:15;;;;;;;1.90;0.80;;;;;;;;;;482401;29;1125;-75
2023/08/28 01:37:39;;;;;;;1.10;0.73;;;;;;;;;;487178;29;1153;-75
2023/08/28 01:38:13;;;;;;;2.05;0.80;;;;;;;;;;487786;29;1188;-75
2023/08/28 01:38:33;;;;;;;1.83;0.75;;;;;;;;;;488030;28;1341;-75
2023/08/28 01:38:58;;;;;;;1.92;0.80;;;;;;;;;;488219;28;1050;-75
2023/08/28 01:39:26;;;;;;;2.25;0.70;;;;;;;;;;487583;28;1086;-75
2023/08/28 01:39:48;;;;;;;1.10;0.73;;;;;;;;;;484422;29;1307;-75
2023/08/28 01:40:05;;;;;;;0.68;0.68;;;;;;;;;;484032;29;1324;-75
2023/08/28 01:40:26;;;;;;;1.00;0.70;;;;;;;;;;484558;29;1151;-74
2023/08/28 01:40:50;;;;;;;2.70;0.70;;;;;;;;;;485649;29;1239;-75
2023/08/28 01:41:11;;;;;;;2.55;0.90;;;;;;;;;;481441;29;991;-75
2023/08/28 01:41:28;;;;;;;1.65;0.80;;;;;;;;;;483129;29;1151;-75
2023/08/28 01:41:46;;;;;;;1.40;0.70;;;;;;;;;;481558;29;1174;-76
2023/08/28 01:42:02;;;;;;;1.58;0.73;;;;;;;;;;485066;29;1221;-74
2023/08/28 01:42:18;;;;;;;1.35;0.80;;;;;;;;;;483741;29;1253;-75
2023/08/28 01:42:34;;;;;;;1.88;0.90;;;;;;;;;;485122;29;1065;-75
2023/08/28 01:42:51;;;;;;;2.00;0.70;;;;;;;;;;482192;29;1384;-75
2023/08/28 01:43:12;;;;;;;1.63;0.70;;;;;;;;;;481290;29;1013;-73
2023/08/28 01:43:31;;;;;;;1.60;0.77;;;;;;;;;;482935;29;1184;-75
2023/08/28 01:43:48;;;;;;;1.65;0.80;;;;;;;;;;483036;29;1027;-75
2023/08/28 01:44:06;;;;;;;1.80;0.80;;;;;;;;;;484829;29;1169;-75
2023/08/28 01:44:24;;;;;;;1.90;0.80;;;;;;;;;;481288;29;1269;-76
2023/08/28 01:44:41;;;;;;;2.00;0.90;;;;;;;;;;485014;29;1300;-76
2023/08/28 01:44:57;;;;;;;1.75;0.90;;;;;;;;;;485167;29;1204;-75
2023/08/28 01:45:15;;;;;;;1.67;0.80;;;;;;;;;;483585;29;1085;-75
2023/08/28 01:45:31;;;;;;;1.90;0.80;;;;;;;;;;485909;29;1049;-75
2023/08/28 01:45:47;;;;;;;1.63;0.87;;;;;;;;;;488133;29;994;-76
2023/08/28 01:46:04;;;;;;;1.55;0.80;;;;;;;;;;485159;29;987;-75
2023/08/28 01:46:21;;;;;;;1.60;0.80;;;;;;;;;;486242;29;1355;-75
2023/08/28 01:46:37;;;;;;;1.45;0.90;;;;;;;;;;486171;29;1112;-75
2023/08/28 01:46:53;;;;;;;1.35;0.80;;;;;;;;;;486019;29;1996;-75
2023/08/28 01:47:09;;;;;;;1.33;0.65;;;;;;;;;;485490;29;891;-75
2023/08/28 01:47:25;;;;;;;1.90;0.80;;;;;;;;;;484646;29;1369;-75
2023/08/28 01:47:41;;;;;;;1.67;0.90;;;;;;;;;;486205;29;1016;-75
2023/08/28 01:47:57;;;;;;;1.15;0.90;;;;;;;;;;486246;29;1214;-75
2023/08/28 01:48:13;;;;;;;1.60;0.80;;;;;;;;;;483292;29;1270;-75
2023/08/28 01:48:30;;;;;;;1.60;0.77;;;;;;;;;;482178;29;1225;-76
2023/08/28 01:48:52;;;;;;;1.05;0.70;;;;;;;;;;479674;29;1232;-75
2023/08/28 01:49:07;;;;;;;1.20;0.80;;;;;;;;;;478600;29;1108;-75
2023/08/28 01:49:28;;;;;;;0.90;0.70;;;;;;;;;;476151;29;1326;-75
2023/08/28 01:49:44;;;;;;;1.00;0.73;;;;;;;;;;479898;29;1246;-75
2023/08/28 01:50:00;;;;;;;1.27;0.80;;;;;;;;;;479792;29;1247;-75